createdAt,value
2023-01-23T14:20:39.498Z,10.77
2023-01-23T14:21:30.339Z,10.27
2023-01-23T14:22:06.185Z,10.23
2023-01-23T14:22:38.552Z,10.10
2023-01-23T14:23:32.379Z,10.27
2023-01-23T14:24:20.330Z,12.07
2023-01-23T14:24:53.396Z,10.50
2023-01-23T14:25:26.278Z,10.30
2023-01-23T14:25:58.950Z,11.37
2023-01-23T14:26:32.526Z,13.47
2023-01-23T14:27:09.530Z,13.50
2023-01-23T14:27:52.887Z,24.80
2023-01-23T14:28:25.986Z,25.80
2023-01-23T14:29:03.036Z,33.53
2023-01-23T14:29:35.462Z,26.03
2023-01-23T14:30:18.224Z,29.87
2023-01-23T14:30:54.985Z,24.53
2023-01-23T14:31:29.683Z,36.80
2023-01-23T14:32:02.154Z,46.23
2023-01-23T14:32:34.540Z,45.13
2023-01-23T14:33:17.276Z,34.40
2023-01-23T14:33:50.821Z,50.90
2023-01-23T14:34:25.067Z,35.67
2023-01-23T14:34:57.476Z,60.23
2023-01-23T14:35:32.206Z,64.57
2023-01-23T14:37:04.611Z,36.03
2023-01-23T14:37:37.205Z,56.23
2023-01-23T14:38:12.459Z,47.70
2023-01-23T14:38:49.324Z,45.27
2023-01-23T14:39:24.966Z,39.73
2023-01-23T14:40:02.006Z,45.50
2023-01-23T14:40:50.807Z,62.00
2023-01-23T14:41:44.869Z,38.67
2023-01-23T14:59:16.377Z,13.97
2023-01-23T14:59:50.941Z,16.90
2023-01-23T15:00:23.966Z,13.93
2023-01-23T15:00:57.264Z,14.63
2023-01-23T15:01:29.735Z,13.67
2023-01-23T15:02:34.345Z,13.70
2023-01-23T15:03:08.479Z,17.73
2023-01-23T15:03:43.470Z,15.53
2023-01-23T15:04:23.536Z,15.63
2023-01-23T15:05:59.495Z,15.33
2023-01-23T15:06:34.140Z,15.93
2023-01-23T15:07:06.631Z,14.53
2023-01-23T15:07:56.041Z,14.90
2023-01-23T15:09:17.023Z,15.93
2023-01-23T15:09:49.267Z,15.10
2023-01-23T15:10:27.422Z,13.97
2023-01-23T15:11:01.827Z,13.53
2023-01-23T15:11:34.566Z,13.33
2023-01-23T15:12:08.400Z,14.03
2023-01-23T15:12:51.707Z,14.90
2023-01-23T15:13:31.650Z,13.87
2023-01-23T15:14:04.135Z,13.07
2023-01-23T15:14:39.981Z,13.67
2023-01-23T15:15:18.972Z,12.63
2023-01-23T15:16:03.219Z,13.23
2023-01-23T15:16:38.120Z,14.20
2023-01-23T15:17:21.026Z,14.70
2023-01-23T15:17:54.390Z,15.67
2023-01-23T15:18:33.216Z,19.07
2023-01-23T15:19:21.118Z,17.83
2023-01-23T15:19:59.461Z,19.47
2023-01-23T15:20:43.440Z,19.40
2023-01-23T15:21:26.272Z,18.40
2023-01-23T15:22:07.326Z,16.93
2023-01-23T15:22:39.792Z,17.67
2023-01-23T15:23:18.013Z,17.80
2023-01-23T15:24:17.355Z,14.83
2023-01-23T15:24:49.700Z,17.20
2023-01-23T15:25:28.791Z,19.60
2023-01-23T15:26:12.841Z,19.70
2023-01-23T15:26:57.219Z,18.77
2023-01-23T15:27:34.423Z,15.93
2023-01-23T15:28:32.349Z,14.17
2023-01-23T15:29:07.246Z,15.40
2023-01-23T15:29:39.574Z,14.37
2023-01-23T15:30:29.878Z,14.93
2023-01-23T15:31:02.271Z,15.53
2023-01-23T15:31:40.776Z,16.50
2023-01-23T15:32:21.774Z,16.03
2023-01-23T15:32:54.706Z,15.47
2023-01-23T15:33:31.907Z,15.87
2023-01-23T15:34:16.102Z,14.37
2023-01-23T15:34:57.557Z,15.90
2023-01-23T15:35:29.952Z,17.83
2023-01-23T15:36:08.631Z,20.23
2023-01-23T15:36:56.072Z,15.83
2023-01-23T15:37:28.435Z,15.90
2023-01-23T15:38:05.090Z,16.23
2023-01-23T15:38:37.906Z,16.10
2023-01-23T15:39:21.445Z,16.40
2023-01-23T15:39:57.367Z,17.63
2023-01-23T15:40:31.318Z,18.47
2023-01-23T15:41:09.545Z,17.17
2023-01-23T15:41:48.255Z,19.33
2023-01-23T15:42:28.279Z,21.93
2023-01-23T15:43:12.124Z,26.73
2023-01-23T15:43:44.454Z,25.60
2023-01-23T15:44:19.773Z,25.93
2023-01-23T15:44:52.111Z,27.63
2023-01-23T15:45:24.383Z,26.37
2023-01-23T15:45:56.781Z,29.17
2023-01-23T15:46:29.243Z,28.97
2023-01-23T15:47:03.400Z,25.43
2023-01-23T15:47:36.012Z,23.17
2023-01-23T15:48:08.614Z,21.60
2023-01-23T15:48:40.954Z,22.40
2023-01-23T15:49:24.460Z,25.60
2023-01-23T15:50:03.045Z,21.77
2023-01-23T15:50:35.641Z,19.43
2023-01-23T15:51:11.558Z,21.40
2023-01-23T15:51:43.925Z,21.87
2023-01-23T15:52:25.085Z,22.93
2023-01-23T15:52:57.423Z,21.20
2023-01-23T15:53:30.066Z,22.47
2023-01-23T15:54:03.874Z,20.77
2023-01-23T15:54:37.667Z,20.63
2023-01-23T15:55:10.835Z,21.50
2023-01-23T15:55:43.193Z,22.93
2023-01-23T15:56:26.605Z,21.60
2023-01-23T15:57:07.161Z,22.13
2023-01-23T15:57:41.838Z,22.30
2023-01-23T15:58:17.206Z,19.93
2023-01-23T15:58:49.521Z,20.13
2023-01-23T15:59:21.831Z,20.63
2023-01-23T15:59:54.166Z,19.33
2023-01-23T16:00:28.187Z,18.13
2023-01-23T16:01:00.520Z,18.10
2023-01-23T16:01:32.976Z,19.63
2023-01-23T16:02:08.234Z,19.73
2023-01-23T16:02:55.149Z,21.43
2023-01-23T16:03:28.801Z,25.90
2023-01-23T16:04:01.166Z,29.03
2023-01-23T16:04:34.186Z,22.17
2023-01-23T16:05:07.879Z,18.90
2023-01-23T16:05:40.809Z,20.40
2023-01-23T16:06:21.089Z,25.93
2023-01-23T16:06:53.565Z,19.10
2023-01-23T16:07:30.739Z,18.73
2023-01-23T16:08:05.816Z,26.03
2023-01-23T16:08:38.253Z,24.07
2023-01-23T16:09:47.250Z,24.53
2023-01-23T16:10:31.690Z,27.23
2023-01-23T16:11:04.074Z,24.30
2023-01-23T16:11:38.251Z,25.23
2023-01-23T16:12:17.410Z,24.27
2023-01-23T16:12:52.247Z,24.33
2023-01-23T16:13:24.565Z,21.73
2023-01-23T16:13:56.875Z,20.97
2023-01-23T16:14:29.166Z,21.40
2023-01-23T16:15:01.464Z,21.03
2023-01-23T16:15:35.310Z,18.90
2023-01-23T16:16:14.135Z,18.27
2023-01-23T16:16:47.003Z,18.47
2023-01-23T16:17:19.328Z,18.73
2023-01-23T16:17:52.371Z,19.27
2023-01-23T16:18:24.757Z,18.37
2023-01-23T16:18:57.062Z,25.20
2023-01-23T16:19:29.380Z,46.37
2023-01-23T16:20:01.805Z,33.37
2023-01-23T16:20:39.917Z,22.67
2023-01-23T16:21:28.831Z,17.37
2023-01-23T16:22:05.271Z,19.47
2023-01-23T16:22:37.937Z,16.83
2023-01-23T16:23:35.731Z,17.57
2023-01-23T16:24:21.995Z,16.73
2023-01-23T16:24:54.325Z,15.70
2023-01-23T16:25:43.625Z,14.47
2023-01-23T16:26:21.721Z,15.57
2023-01-23T16:26:56.583Z,15.67
2023-01-23T16:27:29.021Z,16.27
2023-01-23T16:28:01.411Z,14.10
2023-01-23T16:28:34.079Z,14.77
2023-01-23T16:29:13.693Z,14.80
2023-01-23T16:29:49.507Z,17.57
2023-01-23T16:30:23.543Z,16.70
2023-01-23T16:30:55.878Z,15.47
2023-01-23T16:31:28.357Z,14.60
2023-01-23T16:32:02.385Z,14.77
2023-01-23T16:32:34.896Z,15.50
2023-01-23T16:33:07.555Z,16.63
2023-01-23T16:33:39.837Z,17.63
2023-01-23T16:34:12.160Z,16.93
2023-01-23T16:34:44.496Z,16.40
2023-01-23T16:35:17.247Z,15.67
2023-01-23T16:35:52.563Z,14.93
2023-01-23T16:36:24.878Z,19.90
2023-01-23T16:36:58.825Z,23.23
2023-01-23T16:37:31.310Z,25.10
2023-01-23T16:38:04.243Z,20.17
2023-01-23T16:38:36.621Z,18.30
2023-01-23T16:39:20.376Z,20.43
2023-01-23T16:39:52.680Z,18.40
2023-01-23T16:40:27.521Z,17.90
2023-01-23T16:41:02.223Z,19.17
2023-01-23T16:41:34.572Z,18.93
2023-01-23T16:42:06.912Z,17.20
2023-01-23T16:42:39.387Z,16.27
2023-01-23T16:43:11.700Z,15.47
2023-01-23T16:43:44.045Z,15.40
2023-01-23T16:44:18.672Z,15.57
2023-01-23T16:44:51.049Z,16.73
2023-01-23T16:45:25.831Z,17.53
2023-01-23T16:45:58.337Z,20.00
2023-01-23T16:46:30.717Z,18.67
2023-01-23T16:47:03.169Z,16.70
2023-01-23T16:47:35.494Z,17.13
2023-01-23T16:48:10.979Z,18.53
2023-01-23T16:48:50.524Z,16.27
2023-01-23T16:49:22.866Z,16.17
2023-01-23T16:49:55.181Z,17.67
2023-01-23T16:50:36.789Z,16.40
2023-01-23T16:51:17.965Z,15.77
2023-01-23T16:51:59.518Z,19.00
2023-01-23T16:52:31.922Z,24.87
2023-01-23T16:53:20.810Z,30.43
2023-01-23T16:53:56.347Z,26.17
2023-01-23T16:54:28.789Z,27.77
2023-01-23T16:55:01.315Z,25.93
2023-01-23T16:55:36.938Z,31.70
2023-01-23T16:56:25.177Z,25.23
2023-01-23T16:56:58.197Z,23.63
2023-01-23T16:57:31.097Z,22.63
2023-01-23T16:58:05.357Z,21.77
2023-01-23T16:58:39.673Z,27.67
2023-01-23T16:59:16.365Z,27.10
2023-01-23T16:59:50.020Z,31.87
2023-01-23T17:00:33.951Z,33.03
2023-01-23T17:01:21.968Z,37.13
2023-01-23T17:01:54.427Z,33.17
2023-01-23T17:02:29.809Z,36.30
2023-01-23T17:03:05.119Z,30.77
2023-01-23T17:03:40.835Z,30.43
2023-01-23T17:04:16.697Z,46.63
2023-01-23T17:04:49.016Z,47.73
2023-01-23T17:05:22.309Z,61.60
2023-01-23T17:05:55.024Z,28.33
2023-01-23T17:06:27.335Z,21.57
2023-01-23T17:06:59.688Z,27.03
2023-01-23T17:07:32.047Z,37.13
2023-01-23T17:08:17.305Z,33.70
2023-01-23T17:08:50.266Z,55.73
2023-01-23T17:09:23.712Z,49.23
2023-01-23T17:09:56.108Z,35.90
2023-01-23T17:10:38.018Z,31.67
2023-01-23T17:11:24.366Z,27.20
2023-01-23T17:11:57.332Z,27.23
2023-01-23T17:12:34.090Z,23.80
2023-01-23T17:13:06.463Z,20.83
2023-01-23T17:13:38.849Z,19.77
2023-01-23T17:14:36.529Z,21.30
2023-01-23T17:15:19.958Z,24.13
2023-01-23T17:15:55.187Z,19.87
2023-01-23T17:16:28.179Z,21.03
2023-01-23T17:17:11.206Z,21.00
2023-01-23T17:17:45.370Z,23.27
2023-01-23T17:18:29.358Z,28.90
2023-01-23T17:19:09.513Z,25.73
2023-01-23T17:19:42.921Z,25.07
2023-01-23T17:20:15.367Z,23.73
2023-01-23T17:20:47.687Z,23.07
2023-01-23T17:21:23.708Z,21.53
2023-01-23T17:21:57.092Z,19.53
2023-01-23T17:22:32.472Z,21.80
2023-01-23T17:23:04.748Z,23.53
2023-01-23T17:23:37.273Z,23.27
2023-01-23T17:24:15.584Z,23.83
2023-01-23T17:24:48.079Z,24.27
2023-01-23T17:25:23.470Z,22.57
2023-01-23T17:26:00.750Z,24.33
2023-01-23T17:26:33.831Z,26.17
2023-01-23T17:27:06.220Z,26.07
2023-01-23T17:27:44.970Z,24.53
2023-01-23T17:28:19.695Z,22.47
2023-01-23T17:28:52.034Z,22.43
2023-01-23T17:29:24.801Z,21.83
2023-01-23T17:29:57.102Z,24.53
2023-01-23T17:30:29.372Z,23.60
2023-01-23T17:31:01.910Z,22.40
2023-01-23T17:31:34.396Z,22.80
2023-01-23T17:32:06.953Z,25.20
2023-01-23T17:32:40.590Z,24.77
2023-01-23T17:33:20.007Z,24.07
2023-01-23T17:33:52.746Z,27.17
2023-01-23T17:34:26.803Z,27.87
2023-01-23T17:35:02.525Z,27.23
2023-01-23T17:35:37.248Z,28.13
2023-01-23T17:36:09.589Z,28.50
2023-01-23T17:36:41.861Z,27.97
2023-01-23T17:37:22.723Z,25.97
2023-01-23T17:37:57.926Z,24.27
2023-01-23T17:38:35.200Z,25.43
2023-01-23T17:39:09.299Z,26.57
2023-01-23T17:39:41.605Z,26.33
2023-01-23T17:40:15.120Z,25.27
2023-01-23T17:40:48.269Z,24.60
2023-01-23T17:41:20.555Z,26.00
2023-01-23T17:41:52.947Z,26.17
2023-01-23T17:42:25.313Z,26.73
2023-01-23T17:42:57.648Z,25.50
2023-01-23T17:43:29.948Z,25.90
2023-01-23T17:44:02.237Z,26.00
2023-01-23T17:44:34.546Z,25.27
2023-01-23T17:45:08.834Z,24.33
2023-01-23T17:45:43.989Z,23.90
2023-01-23T17:46:22.160Z,24.33
2023-01-23T17:46:54.785Z,24.30
2023-01-23T17:47:27.388Z,24.83
2023-01-23T17:47:59.894Z,25.60
2023-01-23T17:48:34.659Z,25.07
2023-01-23T17:49:23.967Z,25.73
2023-01-23T17:49:56.669Z,25.97
2023-01-23T17:50:28.995Z,25.40
2023-01-23T17:51:01.377Z,24.60
2023-01-23T17:51:34.032Z,24.30
2023-01-23T17:52:06.615Z,24.10
2023-01-23T17:52:38.929Z,23.97
2023-01-23T17:53:13.609Z,25.63
2023-01-23T17:53:46.791Z,26.70
2023-01-23T17:54:19.784Z,27.90
2023-01-23T17:54:52.098Z,30.30
2023-01-23T17:55:28.735Z,30.90
2023-01-23T17:56:01.049Z,30.53
2023-01-23T17:56:33.436Z,29.60
2023-01-23T17:57:05.760Z,28.77
2023-01-23T17:57:38.116Z,27.83
2023-01-23T17:58:10.481Z,24.73
2023-01-23T17:58:43.301Z,24.77
2023-01-23T17:59:15.607Z,26.70
2023-01-23T17:59:47.932Z,26.97
2023-01-23T18:00:21.546Z,26.60
2023-01-23T18:00:56.032Z,27.63
2023-01-23T18:01:28.803Z,25.40
2023-01-23T18:02:01.284Z,25.43
2023-01-23T18:02:33.797Z,27.53
2023-01-23T18:03:08.566Z,26.80
2023-01-23T18:03:41.255Z,26.10
2023-01-23T18:04:20.409Z,25.47
2023-01-23T18:04:52.695Z,24.53
2023-01-23T18:05:25.740Z,24.77
2023-01-23T18:05:58.089Z,24.00
2023-01-23T18:06:30.602Z,24.90
2023-01-23T18:07:02.909Z,23.43
2023-01-23T18:07:48.530Z,22.50
2023-01-23T18:08:25.203Z,20.93
2023-01-23T18:08:57.506Z,20.67
2023-01-23T18:09:29.820Z,20.17
2023-01-23T18:10:02.114Z,19.17
2023-01-23T18:10:35.357Z,19.63
2023-01-23T18:11:16.900Z,23.87
2023-01-23T18:11:52.577Z,20.37
2023-01-23T18:12:51.483Z,28.47
2023-01-23T18:13:32.711Z,21.40
2023-01-23T18:14:42.667Z,21.00
2023-01-23T18:15:43.299Z,19.13
2023-01-23T18:16:24.843Z,19.23
2023-01-23T18:16:57.670Z,20.03
2023-01-23T18:17:40.144Z,19.83
2023-01-23T18:18:21.493Z,20.60
2023-01-23T18:19:03.719Z,20.67
2023-01-23T18:19:36.210Z,21.30
2023-01-23T18:20:28.177Z,22.37
2023-01-23T18:21:01.799Z,22.33
2023-01-23T18:21:34.306Z,21.63
2023-01-23T18:22:10.003Z,21.50
2023-01-23T18:22:42.594Z,22.13
2023-01-23T18:23:15.087Z,22.90
2023-01-23T18:23:47.823Z,23.63
2023-01-23T18:24:27.039Z,23.67
2023-01-23T18:24:59.685Z,23.37
2023-01-23T18:25:32.205Z,23.33
2023-01-23T18:26:20.786Z,24.03
2023-01-23T18:26:57.150Z,24.30
2023-01-23T18:27:31.545Z,24.07
2023-01-23T18:28:12.687Z,22.93
2023-01-23T18:28:55.537Z,24.53
2023-01-23T18:29:33.676Z,24.20
2023-01-23T18:30:50.941Z,24.13
2023-01-23T18:31:34.647Z,24.90
2023-01-23T18:32:26.510Z,26.90
2023-01-23T18:33:33.508Z,29.40
2023-01-23T18:34:42.925Z,24.27
2023-01-23T18:35:21.494Z,25.70
2023-01-23T18:36:17.455Z,33.03
2023-01-23T18:37:04.730Z,28.13
2023-01-23T18:37:51.649Z,26.17
2023-01-23T18:38:49.713Z,26.33
2023-01-23T18:39:49.850Z,50.27
2023-01-23T18:40:40.820Z,41.27
2023-01-23T18:41:22.242Z,33.10
2023-01-23T18:42:11.302Z,26.03
2023-01-23T18:43:00.747Z,23.83
2023-01-23T18:43:43.652Z,23.30
2023-01-23T18:44:24.033Z,33.97
2023-01-23T18:44:59.530Z,50.43
2023-01-23T18:45:32.437Z,51.17
2023-01-23T18:46:08.250Z,51.83
2023-01-23T18:46:41.486Z,50.67
2023-01-23T18:47:16.999Z,50.40
2023-01-23T18:47:49.563Z,47.97
2023-01-23T18:48:25.779Z,42.00
2023-01-23T18:48:58.857Z,32.40
2023-01-23T18:49:33.101Z,28.57
2023-01-23T18:50:06.757Z,25.60
2023-01-23T18:50:46.578Z,23.73
2023-01-23T18:51:40.692Z,22.87
2023-01-23T18:52:19.476Z,24.03
2023-01-23T18:53:26.558Z,22.90
2023-01-23T18:54:09.922Z,23.97
2023-01-23T18:55:07.813Z,22.83
2023-01-23T18:56:10.458Z,24.00
2023-01-23T18:56:52.518Z,26.50
2023-01-23T18:57:45.094Z,30.30
2023-01-23T18:58:41.411Z,28.70
2023-01-23T18:59:16.350Z,30.40
2023-01-23T19:00:33.000Z,34.03
2023-01-23T19:01:54.582Z,35.40
2023-01-23T19:02:31.512Z,39.27
2023-01-23T19:03:17.902Z,36.87
2023-01-23T19:03:50.812Z,32.40
2023-01-23T19:04:45.968Z,30.27
2023-01-23T19:05:33.465Z,33.57
2023-01-23T19:06:12.941Z,30.17
2023-01-23T19:06:46.117Z,31.07
2023-01-23T19:07:19.436Z,28.87
2023-01-23T19:07:51.892Z,29.03
2023-01-23T19:08:28.353Z,29.70
2023-01-23T19:09:00.852Z,28.63
2023-01-23T19:09:34.404Z,27.93
2023-01-23T19:10:12.983Z,27.77
2023-01-23T19:10:49.230Z,28.23
2023-01-23T19:11:32.838Z,29.20
2023-01-23T19:12:24.871Z,29.33
2023-01-23T19:13:12.933Z,29.33
2023-01-23T19:13:59.651Z,33.07
2023-01-23T19:14:45.351Z,37.10
2023-01-23T19:15:23.248Z,34.13
2023-01-23T19:16:13.665Z,36.23
2023-01-23T19:16:54.459Z,42.80
2023-01-23T19:17:43.403Z,33.73
2023-01-23T19:18:39.818Z,28.53
2023-01-23T19:19:26.933Z,46.70
2023-01-23T19:20:20.295Z,52.87
2023-01-23T19:21:23.091Z,43.00
2023-01-23T19:21:55.756Z,27.57
2023-01-23T19:22:43.018Z,26.37
2023-01-23T19:23:42.551Z,28.30
2023-01-23T19:24:18.145Z,26.77
2023-01-23T19:24:50.716Z,26.97
2023-01-23T19:25:23.594Z,28.30
2023-01-23T19:25:56.132Z,27.70
2023-01-23T19:26:32.056Z,26.43
2023-01-23T19:27:05.759Z,25.27
2023-01-23T19:27:38.073Z,27.53
2023-01-23T19:28:10.417Z,26.60
2023-01-23T19:28:43.330Z,26.57
2023-01-23T19:29:21.891Z,26.50
2023-01-23T19:29:54.699Z,27.67
2023-01-23T19:30:27.306Z,27.57
2023-01-23T19:30:59.895Z,26.67
2023-01-23T19:31:34.457Z,26.73
2023-01-23T19:32:09.755Z,26.37
2023-01-23T19:32:44.112Z,25.73
2023-01-23T19:33:18.080Z,25.80
2023-01-23T19:33:50.889Z,25.37
2023-01-23T19:34:23.233Z,23.47
2023-01-23T19:34:58.258Z,23.07
2023-01-23T19:35:34.986Z,24.53
2023-01-23T19:36:11.297Z,24.23
2023-01-23T19:36:43.624Z,23.50
2023-01-23T19:37:15.957Z,24.07
2023-01-23T19:37:48.466Z,23.60
2023-01-23T19:38:22.650Z,23.37
2023-01-23T19:39:06.695Z,23.67
2023-01-23T19:39:39.017Z,23.13
2023-01-23T19:40:13.547Z,23.17
2023-01-23T19:40:46.076Z,23.70
2023-01-23T19:41:24.566Z,24.93
2023-01-23T19:41:58.937Z,25.77
2023-01-23T19:42:38.760Z,33.40
2023-01-23T19:43:21.562Z,26.00
2023-01-23T19:43:56.224Z,26.53
2023-01-23T19:44:31.304Z,25.43
2023-01-23T19:45:03.869Z,25.93
2023-01-23T19:45:36.148Z,26.70
2023-01-23T19:46:08.669Z,27.30
2023-01-23T19:46:41.842Z,27.10
2023-01-23T19:47:14.224Z,28.57
2023-01-23T19:47:49.115Z,31.63
2023-01-23T19:48:21.416Z,30.43
2023-01-23T19:48:54.870Z,29.17
2023-01-23T19:49:27.330Z,26.80
2023-01-23T19:49:59.628Z,27.33
2023-01-23T19:50:31.953Z,28.60
2023-01-23T19:51:04.343Z,27.07
2023-01-23T19:51:37.409Z,26.10
2023-01-23T19:52:14.460Z,24.57
2023-01-23T19:52:48.413Z,24.70
2023-01-23T19:53:20.769Z,24.93
2023-01-23T19:53:53.813Z,24.97
2023-01-23T19:54:26.087Z,23.87
2023-01-23T19:54:58.391Z,23.67
2023-01-23T19:55:33.020Z,24.87
2023-01-23T19:56:05.682Z,25.57
2023-01-23T19:56:39.376Z,25.17
2023-01-23T19:57:13.520Z,24.90
2023-01-23T19:57:45.867Z,25.67
2023-01-23T19:58:18.173Z,25.13
2023-01-23T19:58:50.498Z,26.23
2023-01-23T19:59:23.658Z,24.73
2023-01-23T19:59:55.996Z,22.17
2023-01-23T20:00:32.577Z,24.27
2023-01-23T20:01:14.543Z,23.73
2023-01-23T20:01:50.761Z,23.90
2023-01-23T20:02:25.379Z,25.47
2023-01-23T20:02:58.348Z,24.83
2023-01-23T20:03:30.662Z,23.43
2023-01-23T20:04:04.199Z,23.23
2023-01-23T20:04:36.507Z,23.00
2023-01-23T20:05:09.261Z,22.73
2023-01-23T20:05:41.550Z,23.37
2023-01-23T20:06:13.898Z,23.40
2023-01-23T20:06:48.781Z,24.63
2023-01-23T20:07:21.081Z,27.67
2023-01-23T20:07:56.781Z,30.40
2023-01-23T20:08:29.159Z,55.90
2023-01-23T20:09:01.508Z,58.57
2023-01-23T20:09:33.836Z,66.37
2023-01-23T20:10:07.492Z,50.87
2023-01-23T20:10:39.829Z,34.17
2023-01-23T20:11:12.634Z,35.90
2023-01-23T20:11:46.235Z,37.80
2023-01-23T20:12:18.542Z,40.93
2023-01-23T20:12:52.215Z,41.03
2023-01-23T20:13:24.607Z,42.23
2023-01-23T20:13:56.923Z,42.40
2023-01-23T20:14:29.744Z,38.93
2023-01-23T20:15:02.015Z,29.63
2023-01-23T20:15:34.322Z,30.27
2023-01-23T20:16:12.585Z,30.07
2023-01-23T20:16:44.925Z,28.33
2023-01-23T20:17:17.200Z,34.53
2023-01-23T20:17:49.555Z,30.10
2023-01-23T20:18:22.227Z,23.80
2023-01-23T20:18:54.998Z,24.03
2023-01-23T20:19:27.288Z,25.10
2023-01-23T20:19:59.768Z,22.43
2023-01-23T20:20:32.103Z,22.97
2023-01-23T20:21:04.761Z,24.77
2023-01-23T20:21:37.067Z,24.83
2023-01-23T20:22:09.430Z,27.57
2023-01-23T20:22:42.871Z,27.57
2023-01-23T20:23:15.190Z,25.50
2023-01-23T20:23:48.336Z,26.90
2023-01-23T20:24:20.688Z,32.47
2023-01-23T20:24:53.013Z,31.93
2023-01-23T20:25:25.296Z,30.83
2023-01-23T20:26:01.563Z,26.60
2023-01-23T20:26:33.868Z,28.60
2023-01-23T20:27:06.143Z,32.13
2023-01-23T20:27:38.858Z,35.50
2023-01-23T20:28:11.269Z,36.47
2023-01-23T20:28:47.125Z,34.87
2023-01-23T20:29:19.451Z,33.90
2023-01-23T20:29:52.184Z,34.30
2023-01-23T20:30:24.806Z,35.10
2023-01-23T20:30:57.507Z,33.20
2023-01-23T20:31:30.259Z,34.10
2023-01-23T20:32:02.747Z,33.80
2023-01-23T20:32:35.492Z,33.47
2023-01-23T20:33:07.882Z,32.53
2023-01-23T20:33:40.420Z,34.90
2023-01-23T20:34:12.773Z,35.83
2023-01-23T20:34:45.076Z,34.17
2023-01-23T20:35:17.436Z,33.57
2023-01-23T20:35:53.860Z,33.07
2023-01-23T20:36:26.174Z,34.40
2023-01-23T20:36:58.502Z,34.60
2023-01-23T20:37:30.881Z,33.80
2023-01-23T20:38:03.199Z,35.27
2023-01-23T20:38:35.511Z,35.07
2023-01-23T20:39:07.952Z,36.37
2023-01-23T20:39:40.875Z,38.00
2023-01-23T20:40:13.263Z,39.03
2023-01-23T20:40:45.627Z,37.80
2023-01-23T20:41:19.668Z,36.30
2023-01-23T20:41:52.884Z,37.07
2023-01-23T20:42:25.216Z,37.03
2023-01-23T20:42:57.524Z,36.73
2023-01-23T20:43:29.930Z,38.23
2023-01-23T20:44:02.352Z,36.77
2023-01-23T20:44:34.638Z,37.07
2023-01-23T20:45:07.944Z,36.80
2023-01-23T20:45:51.720Z,37.00
2023-01-23T20:46:24.177Z,36.10
2023-01-23T20:46:56.512Z,36.03
2023-01-23T20:47:28.852Z,35.20
2023-01-23T20:48:01.249Z,34.60
2023-01-23T20:48:35.063Z,36.17
2023-01-23T20:49:07.362Z,36.77
2023-01-23T20:49:39.665Z,39.87
2023-01-23T20:50:12.206Z,39.20
2023-01-23T20:50:45.084Z,38.10
2023-01-23T20:51:17.461Z,35.80
2023-01-23T20:51:49.818Z,33.23
2023-01-23T20:52:40.836Z,32.73
2023-01-23T20:53:29.839Z,34.70
2023-01-23T20:54:02.159Z,33.80
2023-01-23T20:54:34.441Z,34.33
2023-01-23T20:55:07.147Z,36.80
2023-01-23T20:55:39.509Z,37.63
2023-01-23T20:56:14.701Z,37.10
2023-01-23T20:56:47.055Z,39.60
2023-01-23T20:57:19.413Z,36.83
2023-01-23T20:58:09.964Z,35.73
2023-01-23T20:59:03.069Z,36.13
2023-01-23T20:59:35.339Z,35.10
2023-01-23T21:00:08.428Z,37.40
2023-01-23T21:00:40.759Z,35.77
2023-01-23T21:01:13.618Z,35.57
2023-01-23T21:02:05.085Z,36.17
2023-01-23T21:02:37.444Z,35.30
2023-01-23T21:03:09.840Z,36.60
2023-01-23T21:03:42.323Z,35.53
2023-01-23T21:04:14.598Z,35.47
2023-01-23T21:04:47.065Z,35.53
2023-01-23T21:05:19.648Z,35.37
2023-01-23T21:05:52.287Z,35.47
2023-01-23T21:06:24.570Z,34.73
2023-01-23T21:06:57.185Z,34.40
2023-01-23T21:07:29.463Z,35.70
2023-01-23T21:08:01.796Z,34.97
2023-01-23T21:08:34.661Z,35.57
2023-01-23T21:09:06.973Z,38.93
2023-01-23T21:09:39.285Z,39.00
2023-01-23T21:10:11.644Z,38.27
2023-01-23T21:10:43.941Z,40.37
2023-01-23T21:11:19.030Z,37.87
2023-01-23T21:11:52.478Z,38.30
2023-01-23T21:12:24.765Z,38.77
2023-01-23T21:12:57.035Z,39.50
2023-01-23T21:13:29.334Z,38.43
2023-01-23T21:14:01.693Z,36.53
2023-01-23T21:14:35.539Z,36.43
2023-01-23T21:15:08.531Z,36.67
2023-01-23T21:15:41.465Z,34.40
2023-01-23T21:16:16.414Z,33.30
2023-01-23T21:16:49.493Z,35.70
2023-01-23T21:17:21.789Z,33.20
2023-01-23T21:17:54.059Z,36.27
2023-01-23T21:18:26.458Z,34.33
2023-01-23T21:18:58.763Z,34.40
2023-01-23T21:19:31.996Z,34.57
2023-01-23T21:20:04.594Z,35.70
2023-01-23T21:20:39.231Z,34.90
2023-01-23T21:21:15.051Z,30.60
2023-01-23T21:21:47.847Z,29.70
2023-01-23T21:22:20.180Z,30.93
2023-01-23T21:22:52.454Z,32.10
2023-01-23T21:23:24.759Z,31.30
2023-01-23T21:23:57.081Z,29.87
2023-01-23T21:24:29.384Z,29.27
2023-01-23T21:25:01.950Z,30.10
2023-01-23T21:25:35.646Z,31.40
2023-01-23T21:26:08.734Z,32.07
2023-01-23T21:26:41.627Z,32.67
2023-01-23T21:27:13.984Z,32.10
2023-01-23T21:27:46.303Z,32.17
2023-01-23T21:28:18.602Z,30.97
2023-01-23T21:28:52.442Z,33.17
2023-01-23T21:29:24.755Z,32.03
2023-01-23T21:29:57.082Z,32.50
2023-01-23T21:30:29.359Z,31.53
2023-01-23T21:31:13.462Z,30.70
2023-01-23T21:31:46.013Z,34.43
2023-01-23T21:32:18.356Z,33.73
2023-01-23T21:32:51.294Z,30.93
2023-01-23T21:33:24.002Z,29.70
2023-01-23T21:33:59.452Z,27.93
2023-01-23T21:34:31.762Z,27.00
2023-01-23T21:35:04.188Z,25.07
2023-01-23T21:35:36.548Z,24.07
2023-01-23T21:36:09.104Z,23.67
2023-01-23T21:36:42.751Z,25.33
2023-01-23T21:37:15.146Z,23.07
2023-01-23T21:37:47.452Z,23.97
2023-01-23T21:38:20.734Z,23.10
2023-01-23T21:38:53.608Z,21.03
2023-01-23T21:39:26.002Z,19.53
2023-01-23T21:39:58.272Z,20.00
2023-01-23T21:40:30.585Z,20.63
2023-01-23T21:41:02.915Z,19.87
2023-01-23T21:41:35.349Z,19.93
2023-01-23T21:42:07.608Z,20.37
2023-01-23T21:42:39.895Z,19.17
2023-01-23T21:43:12.196Z,19.10
2023-01-23T21:43:44.507Z,19.40
2023-01-23T21:44:17.167Z,18.83
2023-01-23T21:44:52.600Z,19.93
2023-01-23T21:45:25.989Z,20.77
2023-01-23T21:45:58.437Z,19.60
2023-01-23T21:46:30.989Z,19.30
2023-01-23T21:47:03.390Z,19.87
2023-01-23T21:47:35.670Z,20.73
2023-01-23T21:48:07.965Z,21.07
2023-01-23T21:48:40.584Z,20.67
2023-01-23T21:49:12.867Z,20.13
2023-01-23T21:49:45.316Z,20.87
2023-01-23T21:50:18.329Z,21.87
2023-01-23T21:50:50.637Z,21.37
2023-01-23T21:51:25.282Z,21.83
2023-01-23T21:51:57.577Z,22.03
2023-01-23T21:52:30.313Z,19.77
2023-01-23T21:53:02.635Z,20.97
2023-01-23T21:53:36.207Z,21.30
2023-01-23T21:54:09.162Z,20.80
2023-01-23T21:54:42.742Z,19.17
2023-01-23T21:55:15.045Z,19.60
2023-01-23T21:55:51.921Z,19.23
2023-01-23T21:56:24.568Z,19.10
2023-01-23T21:56:56.866Z,19.87
2023-01-23T21:57:29.176Z,20.37
2023-01-23T21:58:01.590Z,19.80
2023-01-23T21:58:34.234Z,19.53
2023-01-23T21:59:06.538Z,18.73
2023-01-23T21:59:38.817Z,18.40
2023-01-23T22:00:30.619Z,17.07
2023-01-23T22:01:29.245Z,17.83
2023-01-23T22:02:01.649Z,18.10
2023-01-23T22:02:34.005Z,19.03
2023-01-23T22:03:06.328Z,18.00
2023-01-23T22:03:38.611Z,16.43
2023-01-23T22:04:18.297Z,18.10
2023-01-23T22:04:50.756Z,20.20
2023-01-23T22:05:23.461Z,17.07
2023-01-23T22:05:58.942Z,16.60
2023-01-23T22:06:32.675Z,17.23
2023-01-23T22:07:04.984Z,16.70
2023-01-23T22:07:37.270Z,18.10
2023-01-23T22:08:09.582Z,16.27
2023-01-23T22:08:42.003Z,16.50
2023-01-23T22:09:17.110Z,16.13
2023-01-23T22:09:49.409Z,17.50
2023-01-23T22:10:21.776Z,15.97
2023-01-23T22:10:54.052Z,17.33
2023-01-23T22:11:26.403Z,16.53
2023-01-23T22:11:58.714Z,17.43
2023-01-23T22:12:31.004Z,16.87
2023-01-23T22:13:03.279Z,17.00
2023-01-23T22:13:36.371Z,16.10
2023-01-23T22:14:08.661Z,16.33
2023-01-23T22:14:40.977Z,16.37
2023-01-23T22:15:13.318Z,15.43
2023-01-23T22:15:45.643Z,16.23
2023-01-23T22:16:22.704Z,15.73
2023-01-23T22:16:57.722Z,14.73
2023-01-23T22:17:30.433Z,14.57
2023-01-23T22:18:02.748Z,13.93
2023-01-23T22:18:35.042Z,14.80
2023-01-23T22:19:07.388Z,15.43
2023-01-23T22:19:39.677Z,14.87
2023-01-23T22:20:12.989Z,15.17
2023-01-23T22:20:45.293Z,15.43
2023-01-23T22:21:17.560Z,15.00
2023-01-23T22:21:49.873Z,15.70
2023-01-23T22:22:22.157Z,15.87
2023-01-23T22:22:54.463Z,15.30
2023-01-23T22:23:27.767Z,16.00
2023-01-23T22:24:04.004Z,16.57
2023-01-23T22:24:36.299Z,16.53
2023-01-23T22:25:08.992Z,16.60